createdAt,value
2023-04-23T00:02:22.794Z,71.69
2023-04-23T00:07:25.105Z,72.59
2023-04-23T00:12:27.749Z,73.01
2023-04-23T00:17:29.999Z,73.48
2023-04-23T00:22:31.681Z,73.90
2023-04-23T00:27:33.414Z,74.26
2023-04-23T00:32:35.255Z,74.48
2023-04-23T00:37:37.199Z,74.56
2023-04-23T00:42:39.269Z,74.69
2023-04-23T00:47:41.133Z,75.27
2023-04-23T00:52:42.805Z,75.28
2023-04-23T00:57:44.448Z,75.34
2023-04-23T01:02:47.557Z,75.63
2023-04-23T01:07:49.497Z,75.81
2023-04-23T01:12:52.219Z,76.18
2023-04-23T01:17:53.941Z,76.54
2023-04-23T01:22:56.228Z,77.01
2023-04-23T01:27:58.579Z,77.22
2023-04-23T01:33:00.962Z,77.44
2023-04-23T01:38:03.383Z,77.37
2023-04-23T01:43:06.146Z,77.66
2023-04-23T01:48:07.731Z,77.89
2023-04-23T01:53:09.561Z,77.85
2023-04-23T01:58:11.176Z,77.54
2023-04-23T02:03:12.954Z,77.17
2023-04-23T02:08:14.824Z,77.40
2023-04-23T02:13:16.420Z,77.72
2023-04-23T02:18:18.098Z,77.68
2023-04-23T02:23:19.715Z,78.25
2023-04-23T02:28:21.348Z,78.20
2023-04-23T02:33:23.463Z,78.15
2023-04-23T02:38:25.704Z,78.39
2023-04-23T02:43:27.482Z,78.78
2023-04-23T02:48:29.727Z,79.17
2023-04-23T02:53:31.935Z,79.26
2023-04-23T02:58:33.618Z,79.02
2023-04-23T03:03:36.383Z,78.67
2023-04-23T03:08:39.539Z,78.81
2023-04-23T03:13:41.360Z,78.90
2023-04-23T03:18:42.957Z,78.51
2023-04-23T03:23:44.799Z,78.29
2023-04-23T03:28:46.656Z,78.33
2023-04-23T03:33:48.660Z,79.00
2023-04-23T03:38:56.113Z,79.03
2023-04-23T03:43:58.361Z,78.29
2023-04-23T03:49:20.475Z,78.29
2023-04-23T03:54:24.570Z,77.99
2023-04-23T03:59:52.162Z,77.69
2023-04-23T04:04:55.137Z,77.85
2023-04-23T04:09:59.845Z,76.49
2023-04-23T04:15:03.185Z,75.97
2023-04-23T04:20:06.793Z,75.56
2023-04-23T04:25:08.754Z,75.13
2023-04-23T04:30:11.130Z,75.16
2023-04-23T04:35:14.196Z,75.11
2023-04-23T04:40:16.016Z,75.31
2023-04-23T04:45:17.891Z,75.91
2023-04-23T04:50:19.530Z,75.88
2023-04-23T04:55:21.213Z,76.19
2023-04-23T05:00:24.321Z,76.78
2023-04-23T05:05:26.803Z,77.27
2023-04-23T05:10:29.169Z,78.29
2023-04-23T05:15:30.791Z,79.30
2023-04-23T05:20:32.509Z,82.15
2023-04-23T05:25:35.663Z,84.20
2023-04-23T05:30:37.496Z,85.48
2023-04-23T05:35:39.155Z,86.29
2023-04-23T05:40:41.095Z,87.59
2023-04-23T05:45:43.110Z,88.54
2023-04-23T05:50:45.006Z,89.00
2023-04-23T05:55:46.612Z,89.18
2023-04-23T06:00:49.734Z,90.05
2023-04-23T06:05:51.599Z,91.14
2023-04-23T06:10:53.380Z,92.14
2023-04-23T06:15:55.208Z,92.16
2023-04-23T06:20:57.885Z,92.04
2023-04-23T06:26:00.649Z,91.88
2023-04-23T06:31:02.713Z,92.95
2023-04-23T06:36:05.604Z,92.72
2023-04-23T06:41:07.333Z,92.02
2023-04-23T06:46:11.359Z,91.76
2023-04-23T06:51:13.088Z,91.90
2023-04-23T06:56:14.734Z,91.66
2023-04-23T07:01:18.678Z,91.28
2023-04-23T07:06:20.751Z,90.87
2023-04-23T07:11:22.355Z,90.21
2023-04-23T07:16:25.559Z,90.42
2023-04-23T07:21:28.674Z,89.66
2023-04-23T07:26:30.684Z,89.92
2023-04-23T07:31:32.408Z,90.47
2023-04-23T07:36:34.053Z,90.78
2023-04-23T07:41:36.007Z,91.03
2023-04-23T07:46:37.666Z,91.18
2023-04-23T07:51:39.302Z,90.99
2023-04-23T07:56:43.099Z,90.48
2023-04-23T08:01:45.109Z,90.18
2023-04-23T08:06:46.993Z,89.90
2023-04-23T08:11:48.921Z,89.79
2023-04-23T08:16:52.545Z,89.61
2023-04-23T08:21:54.302Z,89.46
2023-04-23T08:26:56.957Z,89.66
2023-04-23T08:31:58.779Z,89.43
2023-04-23T08:37:00.370Z,89.41
2023-04-23T08:42:07.718Z,89.68
2023-04-23T08:47:12.272Z,90.20
2023-04-23T08:52:19.112Z,89.99
2023-04-23T08:57:22.126Z,89.80
2023-04-23T09:02:24.182Z,89.73
2023-04-23T09:07:26.024Z,90.07
2023-04-23T09:12:27.940Z,91.03
2023-04-23T09:17:30.689Z,90.76
2023-04-23T09:22:38.973Z,91.38
2023-04-23T09:27:41.359Z,91.02
2023-04-23T09:32:45.897Z,90.50
2023-04-23T09:37:49.363Z,90.20
2023-04-23T09:42:54.918Z,90.29
2023-04-23T09:47:57.903Z,90.28
2023-04-23T09:52:59.852Z,89.56
2023-04-23T09:58:02.710Z,89.81
2023-04-23T10:03:06.735Z,88.08
2023-04-23T10:08:10.297Z,87.51
2023-04-23T10:13:13.257Z,86.53
2023-04-23T10:18:15.086Z,86.66
2023-04-23T10:23:17.224Z,86.50
2023-04-23T10:28:21.891Z,84.87
2023-04-23T10:38:31.138Z,82.53
2023-04-23T10:43:32.868Z,82.61
2023-04-23T10:49:05.084Z,81.80
2023-04-23T10:54:07.337Z,80.68
2023-04-23T10:59:18.694Z,80.45
2023-04-23T11:04:22.709Z,79.87
2023-04-23T11:09:30.904Z,78.01
2023-04-23T11:14:36.366Z,77.32
2023-04-23T11:19:38.711Z,77.88
2023-04-23T11:24:44.757Z,77.24
2023-04-23T11:29:46.845Z,77.98
2023-04-23T11:34:50.459Z,75.56
2023-04-23T11:39:52.064Z,75.38
2023-04-23T11:44:53.645Z,72.41
2023-04-23T11:49:55.770Z,73.86
2023-04-23T11:55:02.246Z,72.28
2023-04-23T12:00:11.201Z,72.30
2023-04-23T12:05:13.606Z,72.14
2023-04-23T12:10:21.797Z,71.31
2023-04-23T12:15:23.727Z,70.96
2023-04-23T12:20:25.597Z,69.78
2023-04-23T12:25:27.400Z,69.16
2023-04-23T12:30:32.559Z,67.90
2023-04-23T12:36:00.916Z,66.64
2023-04-23T12:41:02.536Z,66.41
2023-04-23T12:46:04.184Z,67.24
2023-04-23T12:51:06.653Z,67.82
2023-04-23T12:56:08.230Z,65.86
2023-04-23T13:01:12.651Z,67.03
2023-04-23T13:06:14.754Z,66.81
2023-04-23T13:11:16.425Z,65.80
2023-04-23T13:16:18.143Z,65.74
2023-04-23T13:21:19.846Z,65.64
2023-04-23T13:26:22.542Z,63.62
2023-04-23T13:31:24.271Z,63.79
2023-04-23T13:36:26.106Z,64.12
2023-04-23T13:41:27.814Z,63.07
2023-04-23T13:46:29.507Z,62.25
2023-04-23T13:51:34.752Z,61.75
2023-04-23T13:56:38.068Z,61.58
2023-04-23T14:01:39.816Z,62.69
2023-04-23T14:06:41.913Z,61.93
2023-04-23T14:11:43.549Z,62.23
2023-04-23T14:16:45.208Z,62.62
2023-04-23T14:21:47.018Z,61.93
2023-04-23T14:26:50.178Z,62.38
2023-04-23T14:31:52.201Z,62.52
2023-04-23T14:36:54.370Z,60.70
2023-04-23T14:41:56.116Z,61.76
2023-04-23T14:46:57.699Z,60.28
2023-04-23T14:51:59.901Z,59.33
2023-04-23T14:57:01.879Z,58.85
2023-04-23T15:02:03.926Z,57.68
2023-04-23T15:07:05.743Z,56.14
2023-04-23T15:12:25.386Z,56.18
2023-04-23T15:17:27.323Z,56.02
2023-04-23T15:22:29.008Z,56.11
2023-04-23T15:27:30.611Z,56.54
2023-04-23T15:32:32.345Z,56.50
2023-04-23T15:37:34.058Z,56.58
2023-04-23T15:42:35.743Z,56.32
2023-04-23T15:47:38.426Z,56.48
2023-04-23T15:52:41.731Z,56.85
2023-04-23T15:57:43.412Z,57.68
2023-04-23T16:02:45.442Z,57.14
2023-04-23T16:07:47.384Z,56.53
2023-04-23T16:12:49.407Z,56.57
2023-04-23T16:17:52.651Z,55.86
2023-04-23T16:22:55.002Z,56.39
2023-04-23T16:27:56.812Z,56.29
2023-04-23T16:32:59.201Z,57.08
2023-04-23T16:38:01.001Z,57.75
2023-04-23T16:43:02.674Z,57.53
2023-04-23T16:48:04.560Z,57.91
2023-04-23T16:53:06.202Z,58.12
2023-04-23T16:58:07.851Z,58.74
2023-04-23T17:03:09.503Z,59.35
2023-04-23T17:08:11.151Z,59.68
2023-04-23T17:13:12.706Z,60.21
2023-04-23T17:18:14.463Z,60.94
2023-04-23T17:23:16.095Z,61.46
2023-04-23T17:28:21.526Z,61.83
2023-04-23T17:33:23.446Z,62.14
2023-04-23T17:38:25.967Z,62.65
2023-04-23T17:43:27.800Z,63.09
2023-04-23T17:48:29.861Z,63.38
2023-04-23T17:53:31.534Z,63.53
2023-04-23T17:58:34.812Z,63.51
2023-04-23T18:03:40.428Z,63.63
2023-04-23T18:08:43.416Z,64.33
2023-04-23T18:13:45.207Z,65.07
2023-04-23T18:18:52.044Z,65.57
2023-04-23T18:23:53.658Z,66.14
2023-04-23T18:28:57.806Z,66.18
2023-04-23T18:34:02.148Z,66.23
2023-04-23T18:39:04.119Z,66.65
2023-04-23T18:44:06.889Z,66.76
2023-04-23T18:49:27.452Z,66.71
2023-04-23T18:54:31.496Z,66.65
2023-04-23T18:59:35.844Z,66.60
2023-04-23T19:04:37.890Z,66.68
2023-04-23T19:09:41.660Z,66.97
2023-04-23T19:14:44.031Z,67.50
2023-04-23T19:19:47.497Z,67.19
2023-04-23T19:24:49.364Z,68.25
2023-04-23T19:29:53.581Z,70.13
2023-04-23T19:34:55.959Z,71.15
2023-04-23T19:39:58.334Z,72.37
2023-04-23T19:45:00.942Z,73.79
2023-04-23T19:50:03.034Z,74.71
2023-04-23T19:55:04.901Z,75.29
2023-04-23T20:00:07.334Z,76.01
2023-04-23T20:05:10.520Z,76.40
2023-04-23T20:10:12.577Z,78.20
2023-04-23T20:15:14.307Z,80.21
2023-04-23T20:20:16.264Z,80.29
2023-04-23T20:25:19.717Z,78.93
2023-04-23T20:30:22.345Z,78.96
2023-04-23T20:35:23.903Z,79.27
2023-04-23T20:40:26.047Z,78.84
2023-04-23T20:45:27.878Z,78.87
2023-04-23T20:50:29.964Z,79.38
2023-04-23T20:55:31.585Z,80.27
2023-04-23T21:00:34.910Z,80.88
2023-04-23T21:05:40.185Z,80.83
2023-04-23T21:10:41.776Z,81.31
2023-04-23T21:15:43.422Z,82.50
2023-04-23T21:20:46.020Z,83.67
2023-04-23T21:25:47.636Z,83.80
2023-04-23T21:30:53.393Z,84.46
2023-04-23T21:35:55.018Z,84.31
2023-04-23T21:40:56.633Z,83.94
2023-04-23T21:45:58.228Z,83.90
2023-04-23T21:51:00.293Z,84.05
2023-04-23T21:56:02.113Z,83.98
2023-04-23T22:01:03.970Z,84.34
2023-04-23T22:06:06.549Z,84.36
2023-04-23T22:11:10.380Z,84.60
2023-04-23T22:16:24.479Z,84.68
2023-04-23T22:21:29.208Z,84.96
2023-04-23T22:26:31.360Z,85.18
2023-04-23T22:31:32.941Z,85.56
2023-04-23T22:36:34.662Z,86.15
2023-04-23T22:41:38.730Z,86.83
2023-04-23T22:46:40.510Z,87.48
2023-04-23T22:51:42.311Z,88.02
2023-04-23T22:56:43.991Z,88.02
2023-04-23T23:01:45.959Z,88.71
2023-04-23T23:06:47.836Z,88.87
2023-04-23T23:11:49.468Z,89.96
2023-04-23T23:16:51.155Z,90.06
2023-04-23T23:21:52.855Z,90.24
2023-04-23T23:26:54.543Z,90.36
2023-04-23T23:31:56.961Z,91.06
2023-04-23T23:36:58.540Z,91.36
2023-04-23T23:42:01.855Z,91.55
2023-04-23T23:47:04.018Z,91.46
2023-04-23T23:52:06.089Z,91.06
2023-04-23T23:57:07.703Z,90.60
